Time;durP1;ratioP1;P1;durP2;ratioP2;P2;SDS_P1;SDS_P2;PMS_P1;PMS_P2;Temp;Humidity;BMP_temperature;BMP_pressure;BME280_temperature;BME280_humidity;BME280_pressure;Samples;Min_cycle;Max_cycle;Signal;HPM_P1;HPM_P2
2023/12/19 00:01:06;;;;;;;26.00;17.80;;;;;;;6.48;97.77;100519.33;104290;1251;96450;-67
2023/12/19 00:03:40;;;;;;;24.80;17.40;;;;;;;6.44;97.41;100516.75;102520;1251;1003055;-67
2023/12/19 00:06:07;;;;;;;24.50;17.70;;;;;;;6.40;97.30;100519.58;103358;1255;107879;-67
2023/12/19 00:08:34;;;;;;;24.80;17.00;;;;;;;6.33;97.42;100517.40;103357;1255;96352;-67
2023/12/19 00:11:01;;;;;;;23.30;16.80;;;;;;;6.30;97.40;100504.50;102619;1251;1003424;-67
2023/12/19 00:13:28;;;;;;;25.40;17.20;;;;;;;6.30;97.52;100503.81;103685;1253;96500;-67
2023/12/19 00:15:54;;;;;;;25.30;17.00;;;;;;;6.27;97.46;100500.00;103296;1251;139002;-66
2023/12/19 00:18:21;;;;;;;25.20;16.90;;;;;;;6.24;97.48;100489.52;103330;1251;108454;-68
2023/12/19 00:20:52;;;;;;;22.30;16.80;;;;;;;6.21;97.41;100486.44;102537;1255;1003604;-67
2023/12/19 00:23:19;;;;;;;23.50;15.70;;;;;;;6.19;97.32;100473.70;103334;1251;106799;-67
2023/12/19 00:25:46;;;;;;;24.00;15.40;;;;;;;6.19;97.52;100470.59;103587;1253;1002581;-67
2023/12/19 00:28:13;;;;;;;22.50;15.60;;;;;;;6.19;97.42;100465.94;103263;1254;138914;-67
2023/12/19 00:30:41;;;;;;;22.60;14.90;;;;;;;6.18;97.39;100465.25;102624;1251;1003388;-67
2023/12/19 00:33:08;;;;;;;22.50;16.00;;;;;;;6.21;97.35;100466.07;103316;1254;139260;-68
2023/12/19 00:35:35;;;;;;;24.20;16.10;;;;;;;6.26;97.38;100466.52;102696;1251;1002883;-66
2023/12/19 00:38:05;;;;;;;22.10;15.60;;;;;;;6.25;96.97;100462.76;104038;1250;96473;-67
2023/12/19 00:40:32;;;;;;;22.50;16.20;;;;;;;6.22;96.80;100469.17;103307;1251;137636;-66
2023/12/19 00:42:59;;;;;;;22.90;15.70;;;;;;;6.21;96.78;100458.81;103374;1253;106580;-67
2023/12/19 00:45:26;;;;;;;22.60;15.10;;;;;;;6.19;96.55;100450.20;103312;1251;138481;-66
2023/12/19 00:47:53;;;;;;;21.20;15.00;;;;;;;6.13;96.46;100448.39;103393;1251;107306;-67
2023/12/19 00:50:20;;;;;;;21.30;14.70;;;;;;;6.09;96.34;100440.30;103357;1251;97001;-67
2023/12/19 00:52:47;;;;;;;22.50;14.20;;;;;;;6.04;96.39;100422.58;102480;1253;1003130;-67
2023/12/19 00:55:14;;;;;;;22.50;15.30;;;;;;;6.01;96.47;100444.53;102706;1254;1002695;-67
2023/12/19 00:57:41;;;;;;;19.40;14.50;;;;;;;6.04;96.63;100456.23;103287;1251;139768;-67
2023/12/19 01:00:12;;;;;;;20.80;15.00;;;;;;;6.09;96.50;100453.24;103409;1251;106996;-67
2023/12/19 01:02:39;;;;;;;22.20;15.90;;;;;;;6.11;96.16;100446.68;103582;1254;96530;-68
2023/12/19 01:05:07;;;;;;;22.50;15.40;;;;;;;6.12;96.01;100453.06;103389;1255;110247;-68
2023/12/19 01:07:34;;;;;;;22.70;14.30;;;;;;;6.10;95.96;100451.34;103295;1256;107121;-69
2023/12/19 01:10:01;;;;;;;21.30;14.30;;;;;;;6.09;95.94;100448.58;102546;1252;1003584;-67
2023/12/19 01:12:28;;;;;;;19.10;13.10;;;;;;;6.07;95.81;100440.66;102810;1251;1003421;-68
2023/12/19 01:14:55;;;;;;;19.50;12.60;;;;;;;6.04;95.78;100430.34;103598;1251;138648;-67
2023/12/19 01:17:22;;;;;;;21.60;12.80;;;;;;;6.05;95.66;100429.29;104401;1253;109290;-67
2023/12/19 01:19:49;;;;;;;19.10;11.90;;;;;;;6.07;95.59;100426.51;104109;1253;107948;-67
2023/12/19 01:22:16;;;;;;;16.90;11.90;;;;;;;6.10;95.41;100436.67;103331;1251;139298;-68
2023/12/19 01:24:42;;;;;;;18.10;12.00;;;;;;;6.09;95.12;100422.86;103357;1251;107982;-68
2023/12/19 01:27:09;;;;;;;17.80;11.60;;;;;;;6.13;95.22;100419.91;103376;1251;138798;-68
2023/12/19 01:29:36;;;;;;;17.90;12.70;;;;;;;6.17;94.88;100424.86;104059;1250;110219;-66
2023/12/19 01:32:03;;;;;;;18.70;12.70;;;;;;;6.18;94.54;100417.08;104166;1251;107971;-68
2023/12/19 01:34:30;;;;;;;18.60;12.00;;;;;;;6.17;94.17;100418.13;103502;1255;137698;-68
2023/12/19 01:36:57;;;;;;;17.10;11.60;;;;;;;6.15;94.09;100415.39;103332;1253;107289;-66
2023/12/19 01:39:24;;;;;;;17.50;10.70;;;;;;;6.15;93.74;100426.95;103261;1255;141515;-68
2023/12/19 01:41:51;;;;;;;16.10;11.00;;;;;;;6.14;93.44;100420.40;103353;1251;110060;-68
2023/12/19 01:44:20;;;;;;;15.20;10.60;;;;;;;6.15;93.12;100414.70;103386;1252;107582;-68
2023/12/19 01:46:48;;;;;;;19.40;11.00;;;;;;;6.16;93.02;100415.21;103214;1253;137981;-67
2023/12/19 01:49:15;;;;;;;15.60;10.60;;;;;;;6.15;92.76;100419.88;102889;1251;1015828;-68
2023/12/19 01:51:42;;;;;;;18.00;11.50;;;;;;;6.14;92.53;100406.60;102641;1254;1003420;-68
2023/12/19 01:54:11;;;;;;;16.90;11.00;;;;;;;6.13;92.63;100400.05;103332;1250;111501;-67
2023/12/19 01:56:39;;;;;;;14.80;10.10;;;;;;;6.13;92.02;100382.97;103321;1251;107204;-67
2023/12/19 01:59:07;;;;;;;14.40;9.50;;;;;;;6.11;92.04;100385.75;103600;1256;95424;-66
2023/12/19 02:01:35;;;;;;;14.80;9.70;;;;;;;6.09;91.67;100389.02;103397;1254;108182;-68
2023/12/19 02:04:03;;;;;;;13.00;9.10;;;;;;;6.11;91.55;100385.39;103672;1254;140354;-66
2023/12/19 02:06:33;;;;;;;13.50;9.30;;;;;;;6.12;91.43;100382.28;103563;1250;109804;-66
2023/12/19 02:09:01;;;;;;;14.60;9.40;;;;;;;6.14;90.97;100376.73;103323;1256;138114;-66
2023/12/19 02:11:28;;;;;;;16.60;10.20;;;;;;;6.15;90.65;100367.91;104378;1251;96447;-67
2023/12/19 02:13:56;;;;;;;13.20;9.40;;;;;;;6.15;90.21;100370.85;103323;1255;108529;-66
2023/12/19 02:16:24;;;;;;;15.30;8.80;;;;;;;6.12;89.80;100375.37;103263;1255;137315;-67
2023/12/19 02:19:03;;;;;;;16.20;8.80;;;;;;;6.10;89.71;100361.58;103439;1256;109784;-66
2023/12/19 02:21:31;;;;;;;12.20;7.80;;;;;;;6.10;89.16;100353.13;103230;1253;138129;-67
2023/12/19 02:23:58;;;;;;;10.60;8.00;;;;;;;6.09;88.94;100345.01;103370;1251;96325;-67
2023/12/19 02:26:25;;;;;;;11.80;8.20;;;;;;;6.10;88.51;100341.39;103020;1254;1002267;-67
2023/12/19 02:28:52;;;;;;;11.80;8.40;;;;;;;6.09;88.24;100339.83;103792;1251;139109;-68
2023/12/19 02:31:20;;;;;;;13.00;9.00;;;;;;;6.08;87.98;100338.81;103582;1251;109664;-67
2023/12/19 02:33:47;;;;;;;11.70;8.30;;;;;;;6.07;87.92;100341.92;103366;1255;138051;-67
2023/12/19 02:36:15;;;;;;;11.80;8.30;;;;;;;6.06;87.87;100346.08;103511;1251;96341;-66
2023/12/19 02:38:42;;;;;;;11.70;8.00;;;;;;;6.02;87.42;100345.10;103178;1256;138358;-71
2023/12/19 02:41:10;;;;;;;13.70;7.90;;;;;;;5.99;87.35;100336.00;103354;1251;96436;-67
2023/12/19 02:43:38;;;;;;;10.90;7.20;;;;;;;5.98;87.09;100328.41;103639;1254;109656;-66
2023/12/19 02:46:20;;;;;;;11.40;7.30;;;;;;;5.95;86.88;100317.41;103679;1255;138917;-67
2023/12/19 02:48:47;;;;;;;12.50;7.60;;;;;;;5.98;86.82;100318.92;103925;1252;95860;-67
2023/12/19 02:51:14;;;;;;;10.90;7.70;;;;;;;5.99;86.49;100314.08;103315;1255;137491;-67
2023/12/19 02:53:41;;;;;;;11.10;7.30;;;;;;;5.99;86.48;100317.86;103481;1256;96339;-66
2023/12/19 02:56:08;;;;;;;11.90;7.50;;;;;;;5.98;86.14;100317.55;103381;1255;109868;-67
2023/12/19 02:58:35;;;;;;;10.10;7.50;;;;;;;5.97;86.24;100303.75;103195;1256;137311;-67
2023/12/19 03:01:02;;;;;;;10.40;7.70;;;;;;;5.98;85.84;100301.84;102487;1251;1003390;-68
2023/12/19 03:03:29;;;;;;;10.60;6.90;;;;;;;5.96;85.71;100300.31;103270;1253;137600;-68
2023/12/19 03:05:56;;;;;;;12.80;6.90;;;;;;;5.97;85.45;100297.36;103315;1254;96444;-67
2023/12/19 03:08:23;;;;;;;11.80;6.70;;;;;;;5.96;85.14;100296.52;102521;1256;1002520;-67
2023/12/19 03:10:50;;;;;;;8.80;6.80;;;;;;;5.96;85.13;100293.59;103191;1253;138513;-68
2023/12/19 03:13:17;;;;;;;11.90;6.90;;;;;;;5.96;84.93;100292.02;103269;1257;97943;-68
2023/12/19 03:15:44;;;;;;;9.70;6.00;;;;;;;5.92;84.68;100284.64;103151;1253;138382;-67
2023/12/19 03:18:11;;;;;;;12.40;7.40;;;;;;;5.97;84.11;100284.08;103275;1253;96341;-68
2023/12/19 03:20:38;;;;;;;11.80;7.20;;;;;;;5.95;83.82;100276.67;103286;1253;110110;-68
2023/12/19 03:23:05;;;;;;;15.20;7.80;;;;;;;5.92;83.62;100267.55;103237;1253;107676;-68
2023/12/19 03:25:32;;;;;;;9.80;7.20;;;;;;;5.90;83.31;100258.08;102523;1256;1016082;-67
2023/12/19 03:27:59;;;;;;;9.80;6.80;;;;;;;5.86;83.17;100248.80;103200;1253;137423;-67
2023/12/19 03:30:26;;;;;;;11.20;7.20;;;;;;;5.84;83.16;100244.52;103281;1257;96991;-67
2023/12/19 03:32:53;;;;;;;11.10;6.70;;;;;;;5.84;82.88;100242.43;103172;1257;138666;-68
2023/12/19 03:35:20;;;;;;;11.20;6.90;;;;;;;5.85;82.78;100257.78;103280;1252;107767;-67
2023/12/19 03:37:47;;;;;;;10.90;7.30;;;;;;;5.88;82.49;100262.57;103405;1253;96482;-67
2023/12/19 03:40:14;;;;;;;12.70;7.30;;;;;;;5.92;82.37;100262.73;103207;1253;141025;-68
2023/12/19 03:42:41;;;;;;;13.00;7.90;;;;;;;5.94;82.19;100255.82;103236;1253;96371;-67
2023/12/19 03:45:09;;;;;;;11.80;7.30;;;;;;;5.96;82.27;100237.15;102456;1253;1002717;-68
2023/12/19 03:47:36;;;;;;;11.10;7.70;;;;;;;5.95;81.47;100241.47;103256;1257;107988;-68
2023/12/19 03:50:03;;;;;;;11.60;7.90;;;;;;;5.93;81.37;100244.24;103332;1253;96504;-69
2023/12/19 03:52:30;;;;;;;12.10;7.40;;;;;;;5.91;81.13;100250.99;103194;1253;137692;-68
2023/12/19 03:54:57;;;;;;;12.60;7.30;;;;;;;5.87;81.25;100262.95;103286;1257;96576;-67
2023/12/19 03:57:24;;;;;;;10.70;7.10;;;;;;;5.86;80.95;100259.32;103151;1253;137881;-67
2023/12/19 03:59:51;;;;;;;10.90;6.80;;;;;;;5.86;80.97;100267.26;103296;1257;107789;-67
2023/12/19 04:02:18;;;;;;;9.60;7.10;;;;;;;5.88;81.16;100269.98;103254;1256;96456;-65
2023/12/19 04:04:46;;;;;;;9.90;7.00;;;;;;;5.90;81.08;100260.48;103041;1258;137540;-68
2023/12/19 04:07:13;;;;;;;9.60;7.30;;;;;;;5.93;81.00;100253.23;103237;1253;96442;-68
2023/12/19 04:09:40;;;;;;;11.80;7.20;;;;;;;5.97;80.90;100251.11;103159;1257;137376;-68
2023/12/19 04:12:09;;;;;;;10.60;7.00;;;;;;;5.98;80.70;100257.84;102423;1257;1002884;-66
2023/12/19 04:14:36;;;;;;;10.90;7.50;;;;;;;5.98;80.59;100258.68;103410;1253;97040;-67
2023/12/19 04:17:03;;;;;;;11.50;7.60;;;;;;;5.96;80.56;100255.27;101744;1257;1016017;-68
2023/12/19 04:19:30;;;;;;;13.10;8.20;;;;;;;5.97;80.44;100266.64;102519;1257;1002986;-68
2023/12/19 04:21:57;;;;;;;12.00;7.90;;;;;;;5.96;80.27;100260.27;103141;1253;137499;-68
2023/12/19 04:24:26;;;;;;;12.70;7.80;;;;;;;5.95;80.25;100247.86;102458;1253;1003188;-68
2023/12/19 04:26:54;;;;;;;10.60;7.10;;;;;;;5.95;79.86;100241.99;103157;1254;138613;-67
2023/12/19 04:29:20;;;;;;;13.60;7.30;;;;;;;5.94;79.68;100244.77;103252;1253;107718;-67
2023/12/19 04:31:47;;;;;;;11.70;7.30;;;;;;;5.95;79.50;100255.98;103202;1255;96554;-68
2023/12/19 04:34:14;;;;;;;10.00;6.90;;;;;;;5.98;79.30;100265.42;103213;1253;137969;-67
2023/12/19 04:36:41;;;;;;;10.00;7.20;;;;;;;6.01;79.49;100265.38;103221;1257;109912;-68
2023/12/19 04:39:08;;;;;;;13.20;7.60;;;;;;;6.06;79.35;100258.39;103099;1254;137674;-68
2023/12/19 04:41:37;;;;;;;11.40;7.70;;;;;;;6.07;78.34;100258.55;103280;1257;107649;-67
2023/12/19 04:44:05;;;;;;;11.10;7.50;;;;;;;6.07;78.78;100241.65;103227;1253;96547;-68
2023/12/19 04:46:31;;;;;;;12.00;7.60;;;;;;;6.08;77.87;100239.05;102439;1257;1003065;-68
2023/12/19 04:48:59;;;;;;;12.50;7.60;;;;;;;6.05;78.00;100242.88;103090;1259;108743;-68
2023/12/19 04:51:26;;;;;;;14.10;8.20;;;;;;;6.04;77.99;100244.77;103086;1255;137898;-68
2023/12/19 04:53:53;;;;;;;10.80;7.80;;;;;;;6.04;78.01;100255.83;103253;1253;108999;-67
2023/12/19 04:56:20;;;;;;;11.90;8.00;;;;;;;6.03;77.44;100249.12;103221;1253;96452;-68
2023/12/19 04:58:47;;;;;;;13.30;7.60;;;;;;;6.00;77.66;100245.18;102418;1256;1002679;-67
2023/12/19 05:01:14;;;;;;;13.70;7.60;;;;;;;5.99;77.18;100242.96;103258;1254;107539;-67
2023/12/19 05:03:43;;;;;;;10.90;7.40;;;;;;;6.00;77.00;100237.08;103152;1258;138244;-68
2023/12/19 05:06:16;;;;;;;11.00;7.80;;;;;;;6.01;76.97;100225.16;103379;1253;107746;-67
2023/12/19 05:08:44;;;;;;;11.90;7.20;;;;;;;6.04;76.60;100218.55;103161;1256;137579;-68
2023/12/19 05:11:10;;;;;;;11.40;7.90;;;;;;;6.03;76.06;100221.84;103291;1253;110877;-68
2023/12/19 05:13:37;;;;;;;11.10;7.50;;;;;;;6.03;75.69;100219.42;103201;1253;107946;-68
2023/12/19 05:16:13;;;;;;;10.70;7.50;;;;;;;6.01;76.05;100221.70;103199;1253;137426;-68
2023/12/19 05:18:41;;;;;;;10.90;7.70;;;;;;;5.98;75.75;100231.08;103014;1256;107023;-66
2023/12/19 05:21:08;;;;;;;10.60;7.50;;;;;;;5.96;76.05;100238.02;103128;1253;137656;-69
2023/12/19 05:23:36;;;;;;;14.90;8.20;;;;;;;5.94;76.17;100239.92;103198;1257;109461;-68
2023/12/19 05:26:03;;;;;;;11.30;7.30;;;;;;;5.93;75.69;100239.08;103323;1253;106829;-67
2023/12/19 05:28:30;;;;;;;12.80;8.10;;;;;;;5.92;75.62;100245.48;102420;1256;1016408;-66
2023/12/19 05:30:57;;;;;;;12.40;7.80;;;;;;;5.90;75.67;100245.83;103314;1259;106693;-66
2023/12/19 05:33:25;;;;;;;17.40;7.40;;;;;;;5.90;75.63;100251.88;103100;1256;137994;-67
2023/12/19 05:35:52;;;;;;;11.40;7.00;;;;;;;5.93;75.80;100263.23;103195;1256;111065;-67
2023/12/19 05:38:20;;;;;;;10.30;6.90;;;;;;;5.97;75.79;100266.46;103201;1258;107236;-68
2023/12/19 05:40:47;;;;;;;11.90;7.10;;;;;;;6.05;75.41;100247.53;102510;1256;1002790;-67
2023/12/19 05:43:15;;;;;;;12.90;8.00;;;;;;;6.10;75.50;100238.85;103289;1253;107340;-67
2023/12/19 05:45:42;;;;;;;11.90;7.40;;;;;;;6.15;75.10;100231.02;102424;1256;1003220;-68
2023/12/19 05:48:09;;;;;;;10.70;7.00;;;;;;;6.18;74.75;100223.02;102545;1256;1002924;-67
2023/12/19 05:50:36;;;;;;;10.80;7.50;;;;;;;6.19;74.78;100217.83;103086;1260;107717;-67
2023/12/19 05:53:03;;;;;;;11.00;7.70;;;;;;;6.21;74.64;100217.12;103219;1257;137157;-68
2023/12/19 05:55:30;;;;;;;11.20;7.60;;;;;;;6.20;74.22;100217.46;103243;1253;107330;-67
2023/12/19 05:57:57;;;;;;;12.40;7.60;;;;;;;6.19;73.92;100212.30;102384;1253;1002547;-68
2023/12/19 06:00:24;;;;;;;14.20;7.40;;;;;;;6.17;73.78;100204.91;103289;1256;110535;-67
2023/12/19 06:02:52;;;;;;;12.60;7.20;;;;;;;6.17;73.80;100206.13;103163;1259;137711;-68
2023/12/19 06:05:19;;;;;;;8.80;6.70;;;;;;;6.17;73.76;100205.24;103266;1253;96642;-67
2023/12/19 06:07:47;;;;;;;10.70;7.30;;;;;;;6.17;73.63;100200.95;103304;1257;107729;-67
2023/12/19 06:10:15;;;;;;;8.80;6.70;;;;;;;6.16;73.20;100183.19;103154;1256;137272;-66
2023/12/19 06:12:42;;;;;;;11.20;7.20;;;;;;;6.14;73.24;100187.88;103338;1256;109853;-68
2023/12/19 06:15:14;;;;;;;9.80;7.00;;;;;;;6.13;73.24;100185.48;103095;1258;138599;-68
2023/12/19 06:17:45;;;;;;;10.90;6.90;;;;;;;6.10;73.18;100188.09;103646;1253;96019;-67
2023/12/19 06:20:13;;;;;;;11.20;6.90;;;;;;;6.10;73.36;100194.48;103233;1253;108072;-68
2023/12/19 06:22:41;;;;;;;12.50;6.90;;;;;;;6.10;73.41;100195.34;103216;1253;138332;-68
2023/12/19 06:25:09;;;;;;;11.30;7.60;;;;;;;6.11;73.26;100194.64;103220;1253;109367;-67
2023/12/19 06:27:36;;;;;;;11.00;7.30;;;;;;;6.15;73.52;100198.56;103152;1253;137822;-66
2023/12/19 06:30:04;;;;;;;9.60;7.10;;;;;;;6.20;73.63;100203.83;103271;1256;96630;-66
2023/12/19 06:32:47;;;;;;;14.20;7.80;;;;;;;6.22;73.51;100206.73;103202;1253;137169;-67
2023/12/19 06:35:14;;;;;;;11.80;7.90;;;;;;;6.23;73.51;100213.09;102596;1256;1002957;-66
2023/12/19 06:37:41;;;;;;;10.60;7.50;;;;;;;6.22;73.37;100218.64;103245;1254;110642;-68
2023/12/19 06:40:11;;;;;;;10.40;7.10;;;;;;;6.20;73.67;100210.04;103218;1252;137802;-70
2023/12/19 06:42:37;;;;;;;10.80;8.10;;;;;;;6.20;73.86;100214.02;103215;1256;96566;-70
2023/12/19 06:45:07;;;;;;;12.40;8.20;;;;;;;6.21;73.79;100215.38;103221;1253;137746;-70
2023/12/19 06:47:35;;;;;;;13.20;8.00;;;;;;;6.18;74.07;100207.66;103993;1254;94897;-69
2023/12/19 06:50:03;;;;;;;11.80;7.50;;;;;;;6.16;73.96;100204.23;103284;1253;110684;-68
2023/12/19 06:52:32;;;;;;;11.00;7.30;;;;;;;6.18;74.23;100210.59;102399;1253;1003192;-67
2023/12/19 06:55:00;;;;;;;11.60;7.00;;;;;;;6.18;74.17;100209.39;103150;1253;96706;-69
2023/12/19 06:57:28;;;;;;;12.00;7.90;;;;;;;6.19;74.62;100207.81;103135;1254;137774;-70
2023/12/19 06:59:55;;;;;;;10.80;7.40;;;;;;;6.19;74.86;100205.05;103164;1256;96556;-69
2023/12/19 07:02:22;;;;;;;15.30;8.10;;;;;;;6.22;75.13;100199.83;103135;1256;110992;-69
2023/12/19 07:04:49;;;;;;;12.70;7.90;;;;;;;6.23;75.59;100192.73;103151;1257;137393;-76
2023/12/19 07:07:16;;;;;;;12.80;8.60;;;;;;;6.23;75.67;100192.89;103151;1259;96499;-73
2023/12/19 07:09:43;;;;;;;12.70;8.70;;;;;;;6.21;75.99;100193.45;103102;1254;137383;-73
2023/12/19 07:12:10;;;;;;;14.70;7.80;;;;;;;6.21;76.32;100196.39;103134;1257;96440;-73
2023/12/19 07:14:38;;;;;;;11.40;7.60;;;;;;;6.21;76.47;100191.89;103248;1254;112008;-73
2023/12/19 07:17:05;;;;;;;15.00;7.70;;;;;;;6.22;76.66;100195.50;103046;1256;107848;-74
2023/12/19 07:19:32;;;;;;;10.50;7.10;;;;;;;6.25;76.68;100194.06;102557;1259;1002996;-72
2023/12/19 07:21:59;;;;;;;15.30;8.10;;;;;;;6.27;76.92;100207.34;102994;1254;137673;-72
2023/12/19 07:24:26;;;;;;;21.20;9.60;;;;;;;6.29;77.26;100204.56;103202;1256;96496;-76
2023/12/19 07:26:55;;;;;;;15.20;8.20;;;;;;;6.38;78.12;100200.27;103094;1256;139075;-73
2023/12/19 07:29:22;;;;;;;12.50;8.30;;;;;;;6.41;77.48;100199.87;103203;1256;107642;-73
2023/12/19 07:31:50;;;;;;;15.30;8.30;;;;;;;6.42;77.39;100214.36;103228;1253;96454;-74
2023/12/19 07:34:17;;;;;;;14.10;8.20;;;;;;;6.39;76.93;100219.59;103123;1254;137135;-72
2023/12/19 07:36:45;;;;;;;12.60;7.70;;;;;;;6.36;77.12;100213.95;103025;1257;96539;-71
2023/12/19 07:39:12;;;;;;;11.60;7.60;;;;;;;6.34;77.12;100211.71;103082;1253;138462;-72
2023/12/19 07:41:39;;;;;;;13.80;7.60;;;;;;;6.34;77.21;100211.91;102474;1259;1002847;-75
2023/12/19 07:44:09;;;;;;;12.00;7.10;;;;;;;6.33;76.99;100223.84;103138;1256;96563;-73
2023/12/19 07:46:39;;;;;;;11.50;7.10;;;;;;;6.33;77.10;100216.40;103179;1253;137623;-72
2023/12/19 07:49:06;;;;;;;11.30;7.80;;;;;;;6.35;77.19;100217.59;103254;1254;96513;-70
2023/12/19 07:51:33;;;;;;;14.00;8.60;;;;;;;6.35;77.14;100222.42;103097;1253;138458;-70
2023/12/19 07:54:00;;;;;;;14.50;8.70;;;;;;;6.36;77.26;100216.19;103015;1256;109393;-70
2023/12/19 07:56:27;;;;;;;10.60;7.60;;;;;;;6.39;77.38;100212.86;103160;1256;96554;-70
2023/12/19 07:58:55;;;;;;;12.90;8.50;;;;;;;6.38;77.36;100208.90;102966;1256;137172;-70
2023/12/19 08:01:22;;;;;;;12.60;8.50;;;;;;;6.37;77.51;100208.75;103136;1254;96487;-70
2023/12/19 08:03:49;;;;;;;11.40;7.90;;;;;;;6.35;77.66;100193.05;102983;1256;137818;-69
2023/12/19 08:06:16;;;;;;;11.20;7.70;;;;;;;6.35;77.53;100201.17;102423;1253;1002739;-70
2023/12/19 08:08:44;;;;;;;10.70;7.80;;;;;;;6.34;77.35;100200.67;103275;1256;96806;-69
2023/12/19 08:11:12;;;;;;;9.90;7.20;;;;;;;6.34;77.40;100193.77;103244;1254;109032;-70
2023/12/19 08:13:39;;;;;;;14.20;6.80;;;;;;;6.36;77.39;100190.64;103184;1256;96351;-70
2023/12/19 08:16:08;;;;;;;12.00;7.30;;;;;;;6.37;77.58;100186.29;103192;1255;137616;-70
2023/12/19 08:18:36;;;;;;;12.80;8.00;;;;;;;6.41;77.35;100184.66;102484;1259;1002711;-69
2023/12/19 08:21:05;;;;;;;11.20;7.90;;;;;;;6.41;77.36;100177.08;103222;1253;138081;-70
2023/12/19 08:23:32;;;;;;;10.60;7.50;;;;;;;6.46;77.23;100185.98;103359;1253;106618;-68
2023/12/19 08:25:59;;;;;;;11.50;8.00;;;;;;;6.47;77.36;100192.36;103319;1255;96480;-71
2023/12/19 08:28:26;;;;;;;10.70;7.60;;;;;;;6.45;77.35;100188.77;103140;1253;137389;-72
2023/12/19 08:30:53;;;;;;;10.30;6.90;;;;;;;6.47;77.38;100193.21;103309;1256;107635;-71
2023/12/19 08:33:19;;;;;;;10.50;6.90;;;;;;;6.47;77.54;100198.58;103582;1252;138347;-73
2023/12/19 08:35:48;;;;;;;12.20;7.20;;;;;;;6.48;77.77;100195.11;102523;1256;1003690;-72
2023/12/19 08:38:15;;;;;;;11.40;7.30;;;;;;;6.51;77.93;100191.60;103215;1255;96782;-72
2023/12/19 08:40:42;;;;;;;12.20;7.70;;;;;;;6.55;78.10;100190.32;103190;1253;139641;-71
2023/12/19 08:43:09;;;;;;;9.60;7.00;;;;;;;6.59;78.08;100186.10;104109;1255;106602;-72
2023/12/19 08:45:36;;;;;;;11.00;7.40;;;;;;;6.64;78.17;100184.80;104691;1253;137296;-70
2023/12/19 08:48:04;;;;;;;14.70;7.80;;;;;;;6.70;78.16;100168.65;103902;1256;106435;-71
2023/12/19 08:50:32;;;;;;;10.00;7.50;;;;;;;6.73;78.09;100164.95;103460;1256;96460;-70
2023/12/19 08:52:58;;;;;;;11.10;7.90;;;;;;;6.79;78.20;100167.61;103076;1256;137834;-70
2023/12/19 08:55:25;;;;;;;13.10;7.70;;;;;;;6.82;77.86;100175.17;102527;1256;1015324;-70
2023/12/19 08:57:52;;;;;;;12.00;7.90;;;;;;;6.83;78.03;100172.05;103195;1259;137473;-73
2023/12/19 09:00:21;;;;;;;12.40;7.40;;;;;;;6.85;77.88;100171.67;102856;1253;1003044;-72
2023/12/19 09:02:50;;;;;;;13.90;7.50;;;;;;;6.85;77.91;100166.31;103732;1253;138527;-73
2023/12/19 09:05:19;;;;;;;11.70;7.20;;;;;;;6.88;77.90;100166.76;103140;1258;111317;-71
2023/12/19 09:07:47;;;;;;;10.60;7.20;;;;;;;6.93;77.88;100161.98;102438;1253;1002865;-72
2023/12/19 09:10:15;;;;;;;11.90;7.40;;;;;;;6.97;77.68;100157.08;103205;1256;138162;-72
2023/12/19 09:12:43;;;;;;;13.80;7.80;;;;;;;7.03;77.77;100153.19;102498;1254;1003625;-72
2023/12/19 09:15:10;;;;;;;13.90;8.20;;;;;;;7.06;77.71;100153.80;103166;1257;138088;-72
2023/12/19 09:17:38;;;;;;;11.70;7.50;;;;;;;7.10;77.56;100153.19;103267;1256;110851;-71
2023/12/19 09:20:10;;;;;;;9.60;7.50;;;;;;;7.12;77.49;100156.45;103249;1254;107271;-71
2023/12/19 09:22:37;;;;;;;14.20;8.40;;;;;;;7.12;77.63;100142.80;103171;1259;137160;-71
2023/12/19 09:25:06;;;;;;;10.10;7.70;;;;;;;7.09;77.41;100128.33;102521;1254;1003431;-72
2023/12/19 09:27:33;;;;;;;10.60;7.00;;;;;;;7.12;77.56;100130.00;103230;1256;138749;-71
2023/12/19 09:30:00;;;;;;;9.00;7.30;;;;;;;7.12;77.44;100131.70;103276;1256;110721;-70
2023/12/19 09:32:27;;;;;;;10.80;7.60;;;;;;;7.13;77.37;100124.45;103195;1256;106930;-70
2023/12/19 09:34:54;;;;;;;11.40;7.40;;;;;;;7.15;77.55;100125.93;103056;1253;139954;-71
2023/12/19 09:37:26;;;;;;;11.80;7.90;;;;;;;7.20;77.27;100130.02;102487;1256;1002824;-70
2023/12/19 09:39:53;;;;;;;9.60;7.70;;;;;;;7.19;77.17;100135.73;103181;1256;137657;-69
2023/12/19 09:42:24;;;;;;;12.50;7.40;;;;;;;7.20;77.03;100136.58;103181;1256;109410;-71
2023/12/19 09:44:51;;;;;;;10.10;7.30;;;;;;;7.22;77.11;100131.02;103110;1259;137630;-72
2023/12/19 09:47:23;;;;;;;11.40;8.50;;;;;;;7.24;77.38;100135.29;103283;1259;96459;-71
2023/12/19 09:49:54;;;;;;;10.60;8.00;;;;;;;7.26;77.25;100136.80;103286;1255;107044;-70
2023/12/19 09:52:24;;;;;;;9.20;7.40;;;;;;;7.25;77.29;100128.17;104304;1256;138313;-71
2023/12/19 09:54:52;;;;;;;10.50;7.10;;;;;;;7.24;77.25;100113.67;103213;1256;109457;-71
2023/12/19 09:57:20;;;;;;;10.20;6.60;;;;;;;7.23;77.16;100108.84;102255;1259;1003226;-71
2023/12/19 09:59:48;;;;;;;14.20;7.10;;;;;;;7.27;77.35;100110.84;103279;1257;96325;-71
2023/12/19 10:02:24;;;;;;;11.70;7.00;;;;;;;7.31;77.32;100111.96;103016;1255;107700;-70
2023/12/19 10:04:52;;;;;;;10.50;7.00;;;;;;;7.35;77.31;100106.52;103061;1253;138336;-69
2023/12/19 10:07:20;;;;;;;11.80;7.60;;;;;;;7.37;77.37;100106.48;102521;1256;1003640;-69
2023/12/19 10:09:56;;;;;;;13.60;7.90;;;;;;;7.41;77.47;100111.77;103115;1260;137950;-68
2023/12/19 10:12:23;;;;;;;;;;;;;;;7.45;77.58;100102.86;102390;1253;1002703;-69
2023/12/19 10:14:51;;;;;;;10.80;8.30;;;;;;;7.47;77.50;100091.90;102409;1254;1003521;-70
2023/12/19 10:17:19;;;;;;;10.80;7.80;;;;;;;7.48;77.53;100093.29;102483;1259;1003417;-68
2023/12/19 10:19:46;;;;;;;10.20;8.50;;;;;;;7.47;77.60;100093.80;103237;1254;110858;-69
2023/12/19 10:22:15;;;;;;;12.60;9.90;;;;;;;7.48;77.63;100098.11;101568;1258;1003520;-69
2023/12/19 10:24:42;;;;;;;10.70;8.30;;;;;;;7.47;77.67;100115.59;103137;1259;98236;-68
2023/12/19 10:27:09;;;;;;;10.50;7.40;;;;;;;7.47;77.75;100107.64;102164;1257;1003579;-70
2023/12/19 10:29:38;;;;;;;11.80;7.20;;;;;;;7.48;77.93;100104.67;103320;1259;96444;-69
2023/12/19 10:32:14;;;;;;;10.40;7.60;;;;;;;7.49;78.14;100105.70;103286;1256;109644;-69
2023/12/19 10:34:41;;;;;;;9.00;7.10;;;;;;;7.48;78.07;100109.34;103145;1255;137906;-69
2023/12/19 10:37:13;;;;;;;10.60;7.50;;;;;;;7.52;78.17;100101.98;103256;1259;96445;-69
2023/12/19 10:39:42;;;;;;;12.80;7.50;;;;;;;7.55;78.26;100091.21;103062;1259;138280;-70
2023/12/19 10:42:10;;;;;;;10.70;8.00;;;;;;;7.57;78.26;100089.10;103149;1254;96446;-68
2023/12/19 10:44:40;;;;;;;10.30;8.30;;;;;;;7.57;78.31;100078.19;102364;1253;1003047;-69
2023/12/19 10:47:08;;;;;;;11.60;8.10;;;;;;;7.57;78.26;100068.15;102287;1253;1003089;-69
2023/12/19 10:49:36;;;;;;;12.20;8.30;;;;;;;7.57;78.55;100060.20;103219;1254;97071;-69
2023/12/19 10:52:08;;;;;;;9.90;7.30;;;;;;;7.58;78.62;100050.14;103067;1259;137979;-69
2023/12/19 10:54:36;;;;;;;9.80;7.10;;;;;;;7.60;78.46;100034.34;103166;1253;96709;-68
2023/12/19 10:57:10;;;;;;;10.30;7.50;;;;;;;7.65;78.59;100026.11;102968;1254;137160;-70
2023/12/19 10:59:49;;;;;;;9.00;7.50;;;;;;;7.69;78.64;100009.89;103040;1259;106143;-71
2023/12/19 11:02:27;;;;;;;13.40;8.30;;;;;;;7.76;78.56;99987.75;104606;1255;94469;-69
2023/12/19 11:05:05;;;;;;;9.40;8.10;;;;;;;7.84;78.33;99983.39;104487;1258;137959;-71
2023/12/19 11:07:35;;;;;;;11.00;8.40;;;;;;;7.87;78.29;99986.94;103210;1259;96374;-70
2023/12/19 11:10:05;;;;;;;13.00;8.80;;;;;;;7.89;78.33;99987.59;102907;1259;1002608;-71
2023/12/19 11:12:33;;;;;;;9.60;8.00;;;;;;;7.87;78.14;99988.16;103133;1260;106034;-70